Time;durP1;ratioP1;P1;durP2;ratioP2;P2;SDS_P1;SDS_P2;PMS_P1;PMS_P2;Temp;Humidity;BMP_temperature;BMP_pressure;BME280_temperature;BME280_humidity;BME280_pressure;Samples;Min_cycle;Max_cycle;Signal;HPM_P1;HPM_P2
2021/07/23 00:00:51;;;;;;;21.30;11.00;;;;;;;;;;5075416;28;20278;-65
2021/07/23 00:03:16;;;;;;;17.65;11.32;;;;;;;;;;5075450;28;20048;-65
2021/07/23 00:05:41;;;;;;;25.47;13.43;;;;;;;;;;5083824;28;20508;-65
2021/07/23 00:08:06;;;;;;;29.57;13.80;;;;;;;;;;5074994;28;20312;-65
2021/07/23 00:10:31;;;;;;;22.55;13.07;;;;;;;;;;5081406;28;20531;-65
2021/07/23 00:12:56;;;;;;;23.00;11.80;;;;;;;;;;5088605;28;20523;-65
2021/07/23 00:15:22;;;;;;;20.43;11.77;;;;;;;;;;5083238;28;20309;-65
2021/07/23 00:17:47;;;;;;;17.17;10.90;;;;;;;;;;5074779;28;20786;-65
2021/07/23 00:20:12;;;;;;;18.00;11.07;;;;;;;;;;5080639;28;20266;-65
2021/07/23 00:22:38;;;;;;;21.77;10.25;;;;;;;;;;5080844;28;20063;-65
2021/07/23 00:25:03;;;;;;;26.45;12.30;;;;;;;;;;5082695;28;20069;-65
2021/07/23 00:27:28;;;;;;;20.83;11.13;;;;;;;;;;5084434;28;20028;-66
2021/07/23 00:29:54;;;;;;;17.50;11.33;;;;;;;;;;5073236;28;20058;-66
2021/07/23 00:32:19;;;;;;;19.13;10.95;;;;;;;;;;5079528;28;20024;-66
2021/07/23 00:34:44;;;;;;;19.03;11.40;;;;;;;;;;5076479;28;20024;-66
2021/07/23 00:37:09;;;;;;;15.60;10.17;;;;;;;;;;5083744;28;20266;-66
2021/07/23 00:39:34;;;;;;;23.70;11.47;;;;;;;;;;5074597;28;20051;-66
2021/07/23 00:41:59;;;;;;;20.63;11.80;;;;;;;;;;5074226;28;20036;-66
2021/07/23 00:44:25;;;;;;;20.40;10.90;;;;;;;;;;5077730;28;20674;-66
2021/07/23 00:46:50;;;;;;;22.33;10.37;;;;;;;;;;5077698;28;20461;-66
2021/07/23 00:49:15;;;;;;;20.03;11.53;;;;;;;;;;5086810;28;20258;-66
2021/07/23 00:51:40;;;;;;;18.93;11.23;;;;;;;;;;5080655;28;20662;-66
2021/07/23 00:54:06;;;;;;;20.33;11.70;;;;;;;;;;5071553;28;20278;-66
2021/07/23 00:56:31;;;;;;;22.00;11.70;;;;;;;;;;5075429;28;20297;-66
2021/07/23 00:58:58;;;;;;;17.00;11.35;;;;;;;;;;5085844;28;20031;-66
2021/07/23 01:01:24;;;;;;;18.58;11.00;;;;;;;;;;5077999;28;20089;-66
2021/07/23 01:03:49;;;;;;;21.13;11.48;;;;;;;;;;5086586;28;20032;-66
2021/07/23 01:06:14;;;;;;;18.60;11.07;;;;;;;;;;5079979;28;20035;-66
2021/07/23 01:08:40;;;;;;;19.07;11.23;;;;;;;;;;5076843;28;20020;-66
2021/07/23 01:11:05;;;;;;;18.75;11.63;;;;;;;;;;5071333;28;20028;-66
2021/07/23 01:13:30;;;;;;;18.70;12.18;;;;;;;;;;5078357;28;20032;-66
2021/07/23 01:15:55;;;;;;;25.47;11.53;;;;;;;;;;5083564;28;20491;-66
2021/07/23 01:18:21;;;;;;;17.20;10.60;;;;;;;;;;5078893;28;20270;-66
2021/07/23 01:20:47;;;;;;;20.83;10.48;;;;;;;;;;5073562;28;20026;-66
2021/07/23 01:23:13;;;;;;;21.58;11.93;;;;;;;;;;5088333;28;20043;-66
2021/07/23 01:25:39;;;;;;;22.35;12.07;;;;;;;;;;5086902;28;20025;-66
2021/07/23 01:28:04;;;;;;;20.15;10.75;;;;;;;;;;5072148;28;20021;-66
2021/07/23 01:30:29;;;;;;;18.73;11.93;;;;;;;;;;5076336;28;20107;-66
2021/07/23 01:32:55;;;;;;;22.23;10.70;;;;;;;;;;5076997;28;20024;-66
2021/07/23 01:35:21;;;;;;;22.05;11.15;;;;;;;;;;5075399;28;20016;-66
2021/07/23 01:37:46;;;;;;;20.85;11.73;;;;;;;;;;5078125;28;20028;-66
2021/07/23 01:40:12;;;;;;;20.02;10.75;;;;;;;;;;5086620;28;20078;-66
2021/07/23 01:42:39;;;;;;;22.63;10.48;;;;;;;;;;5077522;28;20023;-66
2021/07/23 01:45:04;;;;;;;18.15;10.75;;;;;;;;;;5088420;28;20028;-66
2021/07/23 01:47:29;;;;;;;18.60;10.88;;;;;;;;;;5075325;28;20112;-66
2021/07/23 01:49:54;;;;;;;20.57;10.60;;;;;;;;;;5080174;28;20434;-66
2021/07/23 01:52:20;;;;;;;16.87;10.13;;;;;;;;;;5086549;28;20262;-66
2021/07/23 01:54:45;;;;;;;18.25;10.73;;;;;;;;;;5081993;28;20313;-66
2021/07/23 01:57:10;;;;;;;18.40;10.50;;;;;;;;;;5082710;28;20074;-66
2021/07/23 01:59:35;;;;;;;18.95;10.88;;;;;;;;;;5070247;28;20050;-66
2021/07/23 02:02:01;;;;;;;17.77;10.68;;;;;;;;;;5070645;28;20115;-66
2021/07/23 02:04:27;;;;;;;17.65;11.05;;;;;;;;;;5078793;28;20117;-66
2021/07/23 02:06:52;;;;;;;17.90;10.43;;;;;;;;;;5072607;28;20051;-66
2021/07/23 02:09:17;;;;;;;21.83;11.38;;;;;;;;;;5072153;28;20056;-66
2021/07/23 02:11:43;;;;;;;20.73;10.47;;;;;;;;;;5085712;28;20103;-66
2021/07/23 02:14:08;;;;;;;16.17;10.73;;;;;;;;;;5070575;28;20251;-66
2021/07/23 02:16:36;;;;;;;21.85;11.50;;;;;;;;;;5082118;28;20032;-66
2021/07/23 02:19:02;;;;;;;22.45;10.52;;;;;;;;;;5076390;28;20036;-66
2021/07/23 02:21:27;;;;;;;22.63;10.77;;;;;;;;;;5089825;28;20020;-66
2021/07/23 02:23:52;;;;;;;18.23;10.83;;;;;;;;;;5074820;28;20024;-66
2021/07/23 02:26:18;;;;;;;19.17;11.67;;;;;;;;;;5085256;28;20337;-66
2021/07/23 02:28:43;;;;;;;17.38;10.73;;;;;;;;;;5086446;28;20034;-65
2021/07/23 02:31:08;;;;;;;22.73;11.43;;;;;;;;;;5090772;28;20465;-66
2021/07/23 02:33:34;;;;;;;19.30;10.20;;;;;;;;;;5079457;28;20029;-66
2021/07/23 02:35:59;;;;;;;18.93;11.37;;;;;;;;;;5080539;28;20342;-66
2021/07/23 02:38:24;;;;;;;18.70;10.93;;;;;;;;;;5089682;28;20281;-66
2021/07/23 02:40:49;;;;;;;17.50;10.80;;;;;;;;;;5093319;28;20263;-66
2021/07/23 02:43:14;;;;;;;20.47;10.97;;;;;;;;;;5077518;28;20855;-66
2021/07/23 02:45:39;;;;;;;17.77;10.03;;;;;;;;;;5083077;28;20277;-66
2021/07/23 02:48:05;;;;;;;21.30;12.03;;;;;;;;;;5089594;28;20261;-66
2021/07/23 02:50:30;;;;;;;18.75;11.40;;;;;;;;;;5077847;28;20277;-66
2021/07/23 02:52:56;;;;;;;17.87;10.57;;;;;;;;;;5081148;28;20019;-66
2021/07/23 02:55:21;;;;;;;22.70;11.52;;;;;;;;;;5085916;28;20385;-65
2021/07/23 02:57:46;;;;;;;22.60;11.93;;;;;;;;;;5074177;28;20038;-65
2021/07/23 03:00:11;;;;;;;19.07;11.83;;;;;;;;;;5078333;28;20742;-65
2021/07/23 03:02:37;;;;;;;19.70;10.98;;;;;;;;;;5073300;28;20267;-65
2021/07/23 03:05:02;;;;;;;22.87;10.57;;;;;;;;;;5074617;28;20040;-65
2021/07/23 03:07:27;;;;;;;17.30;10.88;;;;;;;;;;5076049;28;20290;-65
2021/07/23 03:09:52;;;;;;;18.13;10.70;;;;;;;;;;5090045;28;20360;-65
2021/07/23 03:12:17;;;;;;;23.08;11.10;;;;;;;;;;5091625;28;20258;-65
2021/07/23 03:14:43;;;;;;;20.13;11.07;;;;;;;;;;5077208;28;20112;-65
2021/07/23 03:17:09;;;;;;;24.48;12.43;;;;;;;;;;5075446;28;20029;-65
2021/07/23 03:19:34;;;;;;;21.17;11.73;;;;;;;;;;5084213;28;20012;-66
2021/07/23 03:22:00;;;;;;;18.25;10.93;;;;;;;;;;5092204;28;20122;-65
2021/07/23 03:24:25;;;;;;;18.23;10.73;;;;;;;;;;5073801;28;20013;-65
2021/07/23 03:26:50;;;;;;;19.33;11.38;;;;;;;;;;5082724;28;20833;-65
2021/07/23 03:29:15;;;;;;;22.00;11.90;;;;;;;;;;5072488;28;20016;-65
2021/07/23 03:31:41;;;;;;;26.80;12.93;;;;;;;;;;5081354;28;20254;-65
2021/07/23 03:34:06;;;;;;;24.73;11.32;;;;;;;;;;5082220;28;20008;-65
2021/07/23 03:36:31;;;;;;;20.37;11.73;;;;;;;;;;5084241;28;20111;-65
2021/07/23 03:38:56;;;;;;;18.77;11.33;;;;;;;;;;5082327;28;20251;-65
2021/07/23 03:41:21;;;;;;;20.00;10.67;;;;;;;;;;5081197;28;20750;-65
2021/07/23 03:43:46;;;;;;;20.30;12.70;;;;;;;;;;5091852;28;20289;-65
2021/07/23 03:46:11;;;;;;;24.60;12.00;;;;;;;;;;5087665;28;20336;-65
2021/07/23 03:48:37;;;;;;;18.60;11.43;;;;;;;;;;5077481;28;20266;-65
2021/07/23 03:51:02;;;;;;;25.38;12.98;;;;;;;;;;5091607;28;20839;-65
2021/07/23 03:53:27;;;;;;;23.47;11.87;;;;;;;;;;5077516;28;20043;-65
2021/07/23 03:55:52;;;;;;;19.17;11.55;;;;;;;;;;5085620;28;21166;-65
2021/07/23 03:58:18;;;;;;;22.10;12.23;;;;;;;;;;5092526;28;20102;-65
2021/07/23 04:00:43;;;;;;;20.53;12.17;;;;;;;;;;5083722;28;20282;-65
2021/07/23 04:03:08;;;;;;;27.60;13.07;;;;;;;;;;5079958;28;20630;-65
2021/07/23 04:05:33;;;;;;;25.08;12.95;;;;;;;;;;5084769;28;20048;-65
2021/07/23 04:07:59;;;;;;;26.57;12.43;;;;;;;;;;5077953;28;20024;-65
2021/07/23 04:10:25;;;;;;;23.33;12.27;;;;;;;;;;5081852;28;20305;-65
2021/07/23 04:12:50;;;;;;;29.58;14.15;;;;;;;;;;5072218;28;20676;-65
2021/07/23 04:15:16;;;;;;;22.67;13.33;;;;;;;;;;5076558;28;20103;-65
2021/07/23 04:17:41;;;;;;;29.92;13.07;;;;;;;;;;5078503;28;20262;-65
2021/07/23 04:20:06;;;;;;;19.10;12.60;;;;;;;;;;5087283;28;20031;-65
2021/07/23 04:22:33;;;;;;;22.00;11.77;;;;;;;;;;5077391;28;20605;-65
2021/07/23 04:24:59;;;;;;;23.13;11.70;;;;;;;;;;5071880;28;20035;-65
2021/07/23 04:27:24;;;;;;;22.80;12.20;;;;;;;;;;5073506;28;20028;-65
2021/07/23 04:29:49;;;;;;;20.87;11.17;;;;;;;;;;5076122;28;20262;-65
2021/07/23 04:32:14;;;;;;;23.53;12.97;;;;;;;;;;5073539;28;20351;-65
2021/07/23 04:34:39;;;;;;;22.05;12.18;;;;;;;;;;5073113;28;20286;-65
2021/07/23 04:37:05;;;;;;;29.10;12.53;;;;;;;;;;5073439;28;20112;-65
2021/07/23 04:39:30;;;;;;;24.52;11.23;;;;;;;;;;5075642;28;20270;-65
2021/07/23 04:41:55;;;;;;;22.38;12.25;;;;;;;;;;5075184;28;20017;-65
2021/07/23 04:44:20;;;;;;;20.10;11.37;;;;;;;;;;5091919;28;20119;-65
2021/07/23 04:46:46;;;;;;;19.80;11.43;;;;;;;;;;5083759;28;20425;-65
2021/07/23 04:49:11;;;;;;;22.08;12.35;;;;;;;;;;5090252;28;20265;-65
2021/07/23 04:51:36;;;;;;;24.98;11.65;;;;;;;;;;5089327;28;20063;-65
2021/07/23 04:54:01;;;;;;;22.53;11.50;;;;;;;;;;5087784;28;20023;-65
2021/07/23 04:56:27;;;;;;;18.15;11.18;;;;;;;;;;5087086;28;20750;-65
2021/07/23 04:58:52;;;;;;;37.72;14.43;;;;;;;;;;5077756;28;20046;-65
2021/07/23 05:01:18;;;;;;;15.37;9.97;;;;;;;;;;5085111;28;20016;-65
2021/07/23 05:03:43;;;;;;;22.65;11.52;;;;;;;;;;5089679;28;20353;-65
2021/07/23 05:06:08;;;;;;;26.13;11.73;;;;;;;;;;5077639;28;20031;-65
2021/07/23 05:08:34;;;;;;;18.40;11.07;;;;;;;;;;5075262;28;20048;-65
2021/07/23 05:11:00;;;;;;;20.85;11.52;;;;;;;;;;5076753;28;20503;-65
2021/07/23 05:13:26;;;;;;;17.83;10.98;;;;;;;;;;5091687;28;20471;-65
2021/07/23 05:15:53;;;;;;;24.25;11.85;;;;;;;;;;5080813;28;20066;-65
2021/07/23 05:18:18;;;;;;;25.73;12.90;;;;;;;;;;5079948;28;20392;-65
2021/07/23 05:20:43;;;;;;;23.73;11.93;;;;;;;;;;5083793;28;20019;-65
2021/07/23 05:23:09;;;;;;;20.90;11.03;;;;;;;;;;5082835;28;20024;-65
2021/07/23 05:25:34;;;;;;;22.70;11.85;;;;;;;;;;5074087;28;20337;-65
2021/07/23 05:28:00;;;;;;;22.85;11.88;;;;;;;;;;5088734;28;20032;-65
2021/07/23 05:30:25;;;;;;;22.27;11.15;;;;;;;;;;5073874;28;20028;-65
2021/07/23 05:32:50;;;;;;;18.97;11.33;;;;;;;;;;5070762;28;20029;-65
2021/07/23 05:35:15;;;;;;;25.60;14.60;;;;;;;;;;5070407;28;20765;-65
2021/07/23 05:37:41;;;;;;;21.10;10.47;;;;;;;;;;5071976;28;20277;-66
2021/07/23 05:40:06;;;;;;;20.17;10.13;;;;;;;;;;5069461;28;20311;-66
2021/07/23 05:42:31;;;;;;;17.77;10.35;;;;;;;;;;5069056;28;20255;-65
2021/07/23 05:44:57;;;;;;;15.27;10.18;;;;;;;;;;5081996;28;20111;-65
2021/07/23 05:47:22;;;;;;;20.77;11.47;;;;;;;;;;5073782;28;20027;-66
2021/07/23 05:49:47;;;;;;;17.47;10.03;;;;;;;;;;5079613;28;20282;-66
2021/07/23 05:52:12;;;;;;;20.50;10.68;;;;;;;;;;5088193;28;20020;-65
2021/07/23 05:54:38;;;;;;;24.45;11.20;;;;;;;;;;5080953;28;20353;-66
2021/07/23 05:57:03;;;;;;;18.20;10.47;;;;;;;;;;5077721;28;20145;-65
2021/07/23 05:59:28;;;;;;;23.27;11.60;;;;;;;;;;5085178;28;20283;-65
2021/07/23 06:01:53;;;;;;;20.70;10.90;;;;;;;;;;5069639;28;20408;-65
2021/07/23 06:04:18;;;;;;;22.83;11.40;;;;;;;;;;5079453;28;20453;-65
2021/07/23 06:06:44;;;;;;;25.53;11.00;;;;;;;;;;5079007;28;20347;-65
2021/07/23 06:09:09;;;;;;;20.43;11.50;;;;;;;;;;5085593;22;20279;-86
2021/07/23 06:11:37;;;;;;;19.75;11.98;;;;;;;;;;5068282;28;20315;-86
2021/07/23 06:14:04;;;;;;;29.33;10.90;;;;;;;;;;5075662;28;20498;-86
2021/07/23 06:16:29;;;;;;;18.88;10.55;;;;;;;;;;5076946;28;20073;-87
2021/07/23 06:18:54;;;;;;;22.13;10.77;;;;;;;;;;5073800;28;20043;-87
2021/07/23 06:21:21;;;;;;;17.75;11.27;;;;;;;;;;5065204;28;20050;-85
2021/07/23 06:23:46;;;;;;;20.20;11.32;;;;;;;;;;5079622;28;20032;-85
2021/07/23 06:26:12;;;;;;;30.30;10.73;;;;;;;;;;5081922;28;20045;-85
2021/07/23 06:28:37;;;;;;;19.02;11.63;;;;;;;;;;5081781;28;20171;-85
2021/07/23 06:31:03;;;;;;;26.15;10.25;;;;;;;;;;5057804;28;20044;-86
2021/07/23 06:33:34;;;;;;;18.77;11.38;;;;;;;;;;5058497;28;20017;-86
2021/07/23 06:36:03;;;;;;;21.30;11.68;;;;;;;;;;5057435;28;20020;-86
2021/07/23 06:38:28;;;;;;;22.00;10.80;;;;;;;;;;5074535;28;20091;-86
2021/07/23 06:40:53;;;;;;;21.15;11.50;;;;;;;;;;5077432;28;20027;-86
2021/07/23 06:43:19;;;;;;;21.65;12.15;;;;;;;;;;5061210;28;20020;-86
2021/07/23 06:45:53;;;;;;;16.20;9.43;;;;;;;;;;5069520;28;20388;-86
2021/07/23 06:48:19;;;;;;;24.98;11.88;;;;;;;;;;5057920;28;20021;-85
2021/07/23 06:50:44;;;;;;;16.60;10.00;;;;;;;;;;5060899;28;20415;-85
2021/07/23 06:53:09;;;;;;;21.20;11.18;;;;;;;;;;5059454;28;20027;-86
2021/07/23 06:55:35;;;;;;;19.73;10.98;;;;;;;;;;5075851;28;20024;-85
2021/07/23 06:58:00;;;;;;;22.33;10.55;;;;;;;;;;5059124;28;20062;-86
2021/07/23 07:00:25;;;;;;;18.60;10.50;;;;;;;;;;5076275;28;20116;-85
2021/07/23 07:02:51;;;;;;;20.67;10.32;;;;;;;;;;5067468;28;20088;-86
2021/07/23 07:05:17;;;;;;;18.40;10.00;;;;;;;;;;5079160;28;20033;-86
2021/07/23 07:07:42;;;;;;;17.52;9.48;;;;;;;;;;5058747;28;20027;-86
2021/07/23 07:10:07;;;;;;;22.73;10.43;;;;;;;;;;5079287;28;20372;-85
2021/07/23 07:12:33;;;;;;;26.20;11.60;;;;;;;;;;5080413;28;20012;-86
2021/07/23 07:14:58;;;;;;;20.02;10.45;;;;;;;;;;5065163;28;20035;-86
2021/07/23 07:17:28;;;;;;;18.55;9.70;;;;;;;;;;5065163;28;20029;-86
2021/07/23 07:19:53;;;;;;;;;;;;;;;;;;5063811;28;20028;-86
2021/07/23 07:22:19;;;;;;;19.17;9.77;;;;;;;;;;5062965;28;19909;-85
2021/07/23 07:24:44;;;;;;;19.02;9.93;;;;;;;;;;5064062;28;20051;-85
2021/07/23 07:27:09;;;;;;;15.40;10.38;;;;;;;;;;5064246;28;20020;-86
2021/07/23 07:29:36;;;;;;;24.48;10.30;;;;;;;;;;5064260;28;20020;-86
2021/07/23 07:32:01;;;;;;;21.25;11.15;;;;;;;;;;5064267;28;20024;-86
2021/07/23 07:34:32;;;;;;;20.67;10.15;;;;;;;;;;5063063;28;20036;-86
2021/07/23 07:36:57;;;;;;;16.85;10.15;;;;;;;;;;5066224;28;20029;-86
2021/07/23 07:39:23;;;;;;;20.25;10.65;;;;;;;;;;5059583;28;20022;-87
2021/07/23 07:41:48;;;;;;;18.60;10.73;;;;;;;;;;5057383;28;20029;-87
2021/07/23 07:44:13;;;;;;;14.70;9.43;;;;;;;;;;5056885;28;20842;-87
2021/07/23 07:46:38;;;;;;;17.80;9.75;;;;;;;;;;5073891;28;20089;-86
2021/07/23 07:49:03;;;;;;;20.30;10.17;;;;;;;;;;5055306;28;20020;-86
2021/07/23 07:51:29;;;;;;;19.85;9.80;;;;;;;;;;5074231;28;20741;-86
2021/07/23 07:53:54;;;;;;;12.87;9.37;;;;;;;;;;5054448;28;20029;-87
2021/07/23 07:56:19;;;;;;;14.63;10.13;;;;;;;;;;5052801;28;20279;-87
2021/07/23 07:58:44;;;;;;;17.73;9.80;;;;;;;;;;5070124;28;20050;-87
2021/07/23 08:01:10;;;;;;;15.27;9.47;;;;;;;;;;5051585;28;20027;-87
2021/07/23 08:03:36;;;;;;;19.05;8.45;;;;;;;;;;5051369;28;20293;-87
2021/07/23 08:06:11;;;;;;;16.77;8.30;;;;;;;;;;5060195;28;20024;-86
2021/07/23 08:08:36;;;;;;;11.40;7.97;;;;;;;;;;5087275;28;20012;-86
2021/07/23 08:11:01;;;;;;;18.25;8.82;;;;;;;;;;5086696;28;20047;-86
2021/07/23 08:13:27;;;;;;;9.23;8.10;;;;;;;;;;5083502;28;20017;-87
2021/07/23 08:15:56;;;;;;;12.60;7.72;;;;;;;;;;5068706;28;20278;-87
2021/07/23 08:18:21;;;;;;;18.23;8.80;;;;;;;;;;5070554;28;20028;-87
2021/07/23 08:20:50;;;;;;;12.85;7.53;;;;;;;;;;5070496;28;20307;-86
2021/07/23 08:23:15;;;;;;;13.80;7.38;;;;;;;;;;5069000;28;20012;-86
2021/07/23 08:25:40;;;;;;;13.70;7.57;;;;;;;;;;5059921;28;20026;-86
2021/07/23 08:28:06;;;;;;;15.45;9.68;;;;;;;;;;5052682;28;20036;-86
2021/07/23 08:30:31;;;;;;;13.23;8.50;;;;;;;;;;5071847;28;20024;-87
2021/07/23 08:32:56;;;;;;;12.50;8.17;;;;;;;;;;5055221;28;20263;-87
2021/07/23 08:35:21;;;;;;;10.30;8.23;;;;;;;;;;5054490;28;20277;-87
2021/07/23 08:37:46;;;;;;;14.27;9.45;;;;;;;;;;5070466;28;20282;-86
2021/07/23 08:40:12;;;;;;;17.98;8.98;;;;;;;;;;5072650;28;20021;-87
2021/07/23 08:42:38;;;;;;;15.90;8.93;;;;;;;;;;5053979;28;20020;-86
2021/07/23 08:45:05;;;;;;;16.63;8.40;;;;;;;;;;5054434;28;20024;-86
2021/07/23 08:47:30;;;;;;;18.27;8.70;;;;;;;;;;5055453;28;20107;-87
2021/07/23 08:49:55;;;;;;;20.20;9.40;;;;;;;;;;5050261;28;20086;-86
2021/07/23 08:52:39;;;;;;;15.55;8.48;;;;;;;;;;5054421;28;20029;-87
2021/07/23 08:55:05;;;;;;;21.17;10.43;;;;;;;;;;5052175;28;20024;-87
2021/07/23 08:57:31;;;;;;;18.15;8.70;;;;;;;;;;5045072;28;20021;-86
2021/07/23 08:59:56;;;;;;;15.90;8.77;;;;;;;;;;5053112;28;20387;-87
2021/07/23 09:02:21;;;;;;;13.87;9.63;;;;;;;;;;5057379;28;20019;-86
2021/07/23 09:04:46;;;;;;;17.98;9.60;;;;;;;;;;5074386;28;20028;-87
2021/07/23 09:07:11;;;;;;;16.75;10.23;;;;;;;;;;5076317;28;20052;-86
2021/07/23 09:09:37;;;;;;;18.80;9.07;;;;;;;;;;5079391;28;20039;-87
2021/07/23 09:12:02;;;;;;;22.33;9.93;;;;;;;;;;5077178;28;20365;-86
2021/07/23 09:14:27;;;;;;;12.98;8.48;;;;;;;;;;5074124;28;20277;-87
2021/07/23 09:16:56;;;;;;;20.60;9.82;;;;;;;;;;5070412;28;20029;-87
2021/07/23 09:19:21;;;;;;;13.98;9.18;;;;;;;;;;5069555;28;20105;-86
2021/07/23 09:21:46;;;;;;;16.60;9.50;;;;;;;;;;5052650;28;20032;-86
2021/07/23 09:24:12;;;;;;;16.80;8.50;;;;;;;;;;5052418;28;20031;-87
2021/07/23 09:26:46;;;;;;;20.92;9.20;;;;;;;;;;5070229;28;20017;-86
2021/07/23 09:29:12;;;;;;;15.00;9.07;;;;;;;;;;5069020;28;20028;-87
2021/07/23 09:31:37;;;;;;;17.75;9.55;;;;;;;;;;5050839;28;20122;-87
2021/07/23 09:34:04;;;;;;;17.50;9.13;;;;;;;;;;5069705;28;20028;-86
2021/07/23 09:36:30;;;;;;;17.17;9.27;;;;;;;;;;5051511;28;20115;-87
2021/07/23 09:39:06;;;;;;;20.48;9.95;;;;;;;;;;5051990;28;20060;-87
2021/07/23 09:41:33;;;;;;;16.13;8.57;;;;;;;;;;5038746;28;20040;-86
2021/07/23 09:44:02;;;;;;;16.48;8.27;;;;;;;;;;5045163;28;20426;-86
2021/07/23 09:46:33;;;;;;;19.90;8.45;;;;;;;;;;5045870;28;20020;-87
2021/07/23 09:49:00;;;;;;;14.18;9.00;;;;;;;;;;5064053;28;20020;-87
2021/07/23 09:51:26;;;;;;;15.52;9.98;;;;;;;;;;5064862;28;20103;-87
2021/07/23 09:53:55;;;;;;;13.02;8.18;;;;;;;;;;5046015;28;20128;-85
2021/07/23 09:56:21;;;;;;;19.52;10.15;;;;;;;;;;5045287;28;20056;-87
2021/07/23 09:58:54;;;;;;;19.83;10.80;;;;;;;;;;5065196;28;20035;-87
2021/07/23 10:01:21;;;;;;;19.63;8.77;;;;;;;;;;5072941;28;20020;-86
2021/07/23 10:03:48;;;;;;;19.60;10.32;;;;;;;;;;5053300;28;20028;-87
2021/07/23 10:06:25;;;;;;;18.17;9.55;;;;;;;;;;5052206;28;20040;-87
2021/07/23 10:08:55;;;;;;;16.00;9.57;;;;;;;;;;5051170;28;20450;-87
2021/07/23 10:11:21;;;;;;;17.08;9.48;;;;;;;;;;5071361;28;20024;-87
2021/07/23 10:13:47;;;;;;;14.15;9.15;;;;;;;;;;5053324;28;20123;-86
2021/07/23 10:16:12;;;;;;;12.55;8.30;;;;;;;;;;5070643;28;20067;-86
2021/07/23 10:18:38;;;;;;;15.67;8.87;;;;;;;;;;5053586;28;20021;-87
2021/07/23 10:21:04;;;;;;;18.05;9.80;;;;;;;;;;5050785;28;20429;-87
2021/07/23 10:23:30;;;;;;;13.32;8.57;;;;;;;;;;5069255;28;20103;-87
2021/07/23 10:25:55;;;;;;;13.00;9.02;;;;;;;;;;5050981;28;20048;-86
2021/07/23 10:28:36;;;;;;;17.05;9.00;;;;;;;;;;5052928;28;20020;-86
2021/07/23 10:31:22;;;;;;;13.73;8.65;;;;;;;;;;5047551;28;20020;-88
2021/07/23 10:33:50;;;;;;;17.48;9.57;;;;;;;;;;5048932;28;20028;-87
2021/07/23 10:36:42;;;;;;;32.83;13.05;;;;;;;;;;5046021;28;20028;-89
2021/07/23 10:39:08;;;;;;;19.75;10.93;;;;;;;;;;5066435;28;20063;-87
2021/07/23 10:42:02;;;;;;;19.80;11.00;;;;;;;;;;5069514;28;20025;-88
2021/07/23 10:44:27;;;;;;;16.38;8.90;;;;;;;;;;5051921;28;20103;-87
2021/07/23 10:46:54;;;;;;;17.67;10.13;;;;;;;;;;5052115;28;20059;-87
2021/07/23 10:49:30;;;;;;;21.45;10.60;;;;;;;;;;5077987;23;20891;-64
2021/07/23 10:51:58;;;;;;;19.95;11.35;;;;;;;;;;5061768;28;20396;-65
2021/07/23 10:54:24;;;;;;;15.95;10.77;;;;;;;;;;5061498;28;20017;-65
2021/07/23 10:56:56;;;;;;;17.10;9.75;;;;;;;;;;5054533;28;20025;-65
2021/07/23 11:02:05;;;;;;;23.77;12.20;;;;;;;;;;5062565;28;20119;-65
2021/07/23 11:04:31;;;;;;;20.75;11.70;;;;;;;;;;5054329;28;20100;-64
2021/07/23 11:07:00;;;;;;;23.50;12.82;;;;;;;;;;5053100;28;20524;-65
2021/07/23 11:09:25;;;;;;;18.10;10.98;;;;;;;;;;5067761;28;20078;-64
2021/07/23 11:11:50;;;;;;;18.65;9.80;;;;;;;;;;5068698;28;20439;-66
2021/07/23 11:14:16;;;;;;;18.53;10.97;;;;;;;;;;5072644;28;20024;-64
2021/07/23 11:16:42;;;;;;;21.30;10.57;;;;;;;;;;5071139;28;20431;-66
2021/07/23 11:19:07;;;;;;;27.17;11.13;;;;;;;;;;5056630;28;20024;-64
2021/07/23 11:21:34;;;;;;;18.23;11.35;;;;;;;;;;5054783;28;20267;-65
2021/07/23 11:23:59;;;;;;;17.75;10.05;;;;;;;;;;5070228;28;20082;-65
2021/07/23 11:26:25;;;;;;;14.73;9.50;;;;;;;;;;5061592;28;20095;-64
2021/07/23 11:28:56;;;;;;;17.75;10.63;;;;;;;;;;5067656;28;20035;-66
2021/07/23 11:31:28;;;;;;;20.67;10.40;;;;;;;;;;5061471;28;20486;-65
2021/07/23 11:33:54;;;;;;;19.20;9.13;;;;;;;;;;5062849;28;20612;-64
2021/07/23 11:36:48;;;;;;;17.27;10.38;;;;;;;;;;5066014;28;20028;-65
2021/07/23 11:39:13;;;;;;;15.05;10.45;;;;;;;;;;5036183;28;20033;-65
2021/07/23 11:41:55;;;;;;;19.13;10.02;;;;;;;;;;5071130;28;20023;-66
2021/07/23 11:44:20;;;;;;;15.40;10.55;;;;;;;;;;5063736;28;20500;-67
2021/07/23 11:46:46;;;;;;;18.23;10.13;;;;;;;;;;5059772;28;20033;-64
2021/07/23 11:49:11;;;;;;;16.63;10.05;;;;;;;;;;5063696;28;20035;-65
2021/07/23 11:51:37;;;;;;;16.23;9.00;;;;;;;;;;5070934;28;20028;-64
2021/07/23 11:54:02;;;;;;;17.88;10.35;;;;;;;;;;5071022;28;20107;-64
2021/07/23 11:56:29;;;;;;;15.33;10.00;;;;;;;;;;5061320;28;20143;-64
2021/07/23 11:58:55;;;;;;;17.17;9.90;;;;;;;;;;5067577;28;20059;-64
2021/07/23 12:01:20;;;;;;;20.10;11.15;;;;;;;;;;5059660;28;20055;-64
2021/07/23 12:03:52;;;;;;;14.93;9.80;;;;;;;;;;5054050;28;20019;-64
2021/07/23 12:06:24;;;;;;;19.52;10.38;;;;;;;;;;5063697;28;20275;-66
2021/07/23 12:08:53;;;;;;;17.50;11.18;;;;;;;;;;5052397;28;20485;-64
2021/07/23 12:11:18;;;;;;;19.38;10.50;;;;;;;;;;5067107;28;20028;-65
2021/07/23 12:13:43;;;;;;;19.00;10.80;;;;;;;;;;5057346;28;20021;-65
2021/07/23 12:16:08;;;;;;;14.73;9.00;;;;;;;;;;5065605;28;20029;-65
2021/07/23 12:18:34;;;;;;;15.33;9.07;;;;;;;;;;5063078;28;20278;-65
2021/07/23 12:21:09;;;;;;;18.42;10.82;;;;;;;;;;5071943;28;20259;-64
2021/07/23 12:23:34;;;;;;;23.15;9.15;;;;;;;;;;5069367;28;20166;-65
2021/07/23 12:25:59;;;;;;;16.90;9.70;;;;;;;;;;5062078;28;20529;-64
2021/07/23 12:28:24;;;;;;;13.68;8.52;;;;;;;;;;5068213;28;20029;-65
2021/07/23 12:30:50;;;;;;;14.25;8.57;;;;;;;;;;5060589;28;20476;-64
2021/07/23 12:33:16;;;;;;;17.08;9.50;;;;;;;;;;5061021;28;20472;-64
2021/07/23 12:35:43;;;;;;;15.93;10.13;;;;;;;;;;5069012;28;20020;-65
2021/07/23 12:38:08;;;;;;;13.85;8.60;;;;;;;;;;5057982;28;20088;-65
2021/07/23 12:40:44;;;;;;;20.23;10.02;;;;;;;;;;5069807;28;20117;-65
2021/07/23 12:43:12;;;;;;;17.25;8.18;;;;;;;;;;5057278;28;20067;-68
2021/07/23 12:45:38;;;;;;;12.70;8.27;;;;;;;;;;5065977;28;20021;-65
2021/07/23 12:48:08;;;;;;;14.85;9.93;;;;;;;;;;5057909;28;20388;-67
2021/07/23 12:50:33;;;;;;;14.85;9.05;;;;;;;;;;5055515;28;20075;-65
2021/07/23 12:52:58;;;;;;;15.77;8.93;;;;;;;;;;5061900;28;20036;-66
2021/07/23 12:55:23;;;;;;;15.53;9.27;;;;;;;;;;5063898;28;20266;-66
2021/07/23 12:57:48;;;;;;;17.93;10.17;;;;;;;;;;5067059;28;20642;-66
2021/07/23 13:00:23;;;;;;;12.95;8.38;;;;;;;;;;5033495;28;20264;-66
2021/07/23 13:02:48;;;;;;;21.45;10.10;;;;;;;;;;5057298;28;20020;-65
2021/07/23 13:05:13;;;;;;;20.42;10.55;;;;;;;;;;5070610;28;20217;-67
2021/07/23 13:07:41;;;;;;;15.65;8.68;;;;;;;;;;5052826;28;20492;-65
2021/07/23 13:10:12;;;;;;;12.02;8.18;;;;;;;;;;5066289;28;20469;-66
2021/07/23 13:12:38;;;;;;;18.50;8.60;;;;;;;;;;5064847;28;20032;-66
2021/07/23 13:15:03;;;;;;;15.23;8.73;;;;;;;;;;5053942;28;20036;-65
2021/07/23 13:17:28;;;;;;;15.57;8.07;;;;;;;;;;5067914;28;20160;-66
2021/07/23 13:19:53;;;;;;;15.10;8.23;;;;;;;;;;5058467;28;20032;-66
2021/07/23 13:22:19;;;;;;;13.47;8.33;;;;;;;;;;5066011;28;20099;-66
2021/07/23 13:24:45;;;;;;;16.70;7.97;;;;;;;;;;5070617;28;20263;-66
2021/07/23 13:27:10;;;;;;;14.40;7.80;;;;;;;;;;5070607;28;20495;-67
2021/07/23 13:29:35;;;;;;;15.47;7.27;;;;;;;;;;5064883;28;20286;-66
2021/07/23 13:32:00;;;;;;;14.30;8.03;;;;;;;;;;5059734;28;20059;-66
2021/07/23 13:34:26;;;;;;;17.33;7.55;;;;;;;;;;5050449;28;20097;-65
2021/07/23 13:36:54;;;;;;;11.65;7.38;;;;;;;;;;5069906;28;20089;-66
2021/07/23 13:39:26;;;;;;;11.23;7.03;;;;;;;;;;5070261;28;20020;-66
2021/07/23 13:41:52;;;;;;;11.57;7.90;;;;;;;;;;5070792;28;20012;-65
2021/07/23 13:44:18;;;;;;;12.10;7.28;;;;;;;;;;5071118;28;20021;-65
2021/07/23 13:46:43;;;;;;;14.25;7.65;;;;;;;;;;5051292;28;20021;-66
2021/07/23 13:49:08;;;;;;;9.67;6.67;;;;;;;;;;5049990;28;20063;-66
2021/07/23 13:51:34;;;;;;;10.70;6.45;;;;;;;;;;5050820;28;20271;-66
2021/07/23 13:54:01;;;;;;;13.48;7.20;;;;;;;;;;5051310;28;20044;-67
2021/07/23 13:56:26;;;;;;;13.10;6.93;;;;;;;;;;5050397;28;20136;-64
2021/07/23 13:58:52;;;;;;;11.07;6.83;;;;;;;;;;5053333;28;20496;-65
2021/07/23 14:01:17;;;;;;;13.77;7.10;;;;;;;;;;5070368;28;20717;-65
2021/07/23 14:03:42;;;;;;;13.53;7.07;;;;;;;;;;5067043;28;20017;-65
2021/07/23 14:06:07;;;;;;;10.85;7.60;;;;;;;;;;5059585;28;20339;-65
2021/07/23 14:08:33;;;;;;;13.25;7.35;;;;;;;;;;5059214;28;20037;-65
2021/07/23 14:10:59;;;;;;;15.43;7.68;;;;;;;;;;5049906;28;20021;-65
2021/07/23 14:13:24;;;;;;;16.95;7.15;;;;;;;;;;5050223;28;20107;-65
2021/07/23 14:15:49;;;;;;;10.40;6.70;;;;;;;;;;5050390;28;20159;-65
2021/07/23 14:18:14;;;;;;;16.67;7.38;;;;;;;;;;5050509;28;20284;-65